sensor_id;sensor_type;location;lat;lon;timestamp;P1;durP1;ratioP1;P2;durP2;ratioP2
62010;SDS011;47967;51.756;10.174;2023-04-25T04:02:49;12.93;;;5.10;;
62010;SDS011;47967;51.756;10.174;2023-04-25T04:06:52;12.02;;;4.85;;
62010;SDS011;47967;51.756;10.174;2023-04-25T04:10:59;14.90;;;5.90;;
62010;SDS011;47967;51.756;10.174;2023-04-25T04:15:02;19.50;;;5.95;;
62010;SDS011;47967;51.756;10.174;2023-04-25T04:19:07;11.02;;;4.78;;
62010;SDS011;47967;51.756;10.174;2023-04-25T04:23:11;9.00;;;4.43;;
62010;SDS011;47967;51.756;10.174;2023-04-25T04:27:14;7.87;;;4.13;;
62010;SDS011;47967;51.756;10.174;2023-04-25T04:31:22;11.10;;;4.93;;
62010;SDS011;47967;51.756;10.174;2023-04-25T04:35:27;7.53;;;5.00;;
62010;SDS011;47967;51.756;10.174;2023-04-25T04:39:30;5.60;;;3.63;;
62010;SDS011;47967;51.756;10.174;2023-04-25T04:43:54;8.27;;;4.72;;
62010;SDS011;47967;51.756;10.174;2023-04-25T04:48:10;7.32;;;4.45;;
62010;SDS011;47967;51.756;10.174;2023-04-25T04:52:48;4.72;;;3.13;;
62010;SDS011;47967;51.756;10.174;2023-04-25T04:57:14;7.20;;;3.28;;
62010;SDS011;47967;51.756;10.174;2023-04-25T05:01:34;10.30;;;2.67;;
62010;SDS011;47967;51.756;10.174;2023-04-25T05:05:55;6.30;;;2.50;;
62010;SDS011;47967;51.756;10.174;2023-04-25T05:10:18;11.50;;;3.20;;
62010;SDS011;47967;51.756;10.174;2023-04-25T05:14:39;7.32;;;3.00;;
62010;SDS011;47967;51.756;10.174;2023-04-25T05:19:00;10.90;;;3.28;;
62010;SDS011;47967;51.756;10.174;2023-04-25T05:23:35;10.93;;;3.08;;
62010;SDS011;47967;51.756;10.174;2023-04-25T05:27:47;8.75;;;2.75;;
62010;SDS011;47967;51.756;10.174;2023-04-25T05:32:05;13.38;;;2.50;;
62010;SDS011;47967;51.756;10.174;2023-04-25T05:36:08;11.57;;;2.90;;
62010;SDS011;47967;51.756;10.174;2023-04-25T05:40:12;11.02;;;3.55;;
62010;SDS011;47967;51.756;10.174;2023-04-25T05:44:34;9.32;;;2.92;;
62010;SDS011;47967;51.756;10.174;2023-04-25T05:48:52;9.00;;;3.30;;
62010;SDS011;47967;51.756;10.174;2023-04-25T05:53:18;12.70;;;3.15;;
62010;SDS011;47967;51.756;10.174;2023-04-25T05:57:27;10.57;;;2.70;;
62010;SDS011;47967;51.756;10.174;2023-04-25T06:01:31;11.15;;;3.25;;
62010;SDS011;47967;51.756;10.174;2023-04-25T06:05:34;11.13;;;3.72;;
62010;SDS011;47967;51.756;10.174;2023-04-25T06:09:37;12.45;;;3.70;;
62010;SDS011;47967;51.756;10.174;2023-04-25T06:13:41;11.18;;;3.45;;
62010;SDS011;47967;51.756;10.174;2023-04-25T06:17:46;11.98;;;3.30;;
62010;SDS011;47967;51.756;10.174;2023-04-25T06:21:50;10.15;;;2.88;;
62010;SDS011;47967;51.756;10.174;2023-04-25T06:25:54;14.05;;;3.28;;
62010;SDS011;47967;51.756;10.174;2023-04-25T06:29:57;8.80;;;3.15;;
62010;SDS011;47967;51.756;10.174;2023-04-25T06:34:02;15.38;;;3.70;;
62010;SDS011;47967;51.756;10.174;2023-04-25T06:38:08;14.98;;;3.55;;
62010;SDS011;47967;51.756;10.174;2023-04-25T06:42:12;12.93;;;3.03;;
62010;SDS011;47967;51.756;10.174;2023-04-25T06:46:23;12.45;;;3.10;;
62010;SDS011;47967;51.756;10.174;2023-04-25T06:50:27;12.13;;;2.47;;
62010;SDS011;47967;51.756;10.174;2023-04-25T06:54:29;18.17;;;3.17;;
62010;SDS011;47967;51.756;10.174;2023-04-25T06:58:38;13.65;;;3.75;;
62010;SDS011;47967;51.756;10.174;2023-04-25T07:02:48;11.65;;;2.85;;
62010;SDS011;47967;51.756;10.174;2023-04-25T07:06:53;14.25;;;3.10;;
62010;SDS011;47967;51.756;10.174;2023-04-25T07:11:03;15.10;;;2.83;;
62010;SDS011;47967;51.756;10.174;2023-04-25T07:15:06;16.37;;;3.93;;
62010;SDS011;47967;51.756;10.174;2023-04-25T07:19:13;12.10;;;3.25;;
62010;SDS011;47967;51.756;10.174;2023-04-25T07:23:17;9.50;;;1.85;;
62010;SDS011;47967;51.756;10.174;2023-04-25T07:27:20;10.70;;;2.63;;
62010;SDS011;47967;51.756;10.174;2023-04-25T07:31:39;12.77;;;2.85;;
62010;SDS011;47967;51.756;10.174;2023-04-25T07:35:42;9.73;;;3.17;;
62010;SDS011;47967;51.756;10.174;2023-04-25T07:39:46;9.95;;;2.63;;
62010;SDS011;47967;51.756;10.174;2023-04-25T07:43:49;10.27;;;2.25;;
62010;SDS011;47967;51.756;10.174;2023-04-25T07:47:53;8.60;;;3.28;;
62010;SDS011;47967;51.756;10.174;2023-04-25T07:51:56;15.52;;;3.17;;
62010;SDS011;47967;51.756;10.174;2023-04-25T07:55:59;14.57;;;2.97;;
62010;SDS011;47967;51.756;10.174;2023-04-25T08:00:06;11.75;;;2.78;;
62010;SDS011;47967;51.756;10.174;2023-04-25T08:04:18;4.95;;;1.88;;
62010;SDS011;47967;51.756;10.174;2023-04-25T08:08:32;10.98;;;3.80;;
62010;SDS011;47967;51.756;10.174;2023-04-25T08:12:36;14.80;;;3.13;;
62010;SDS011;47967;51.756;10.174;2023-04-25T08:16:40;8.57;;;2.03;;
62010;SDS011;47967;51.756;10.174;2023-04-25T08:20:43;10.07;;;2.15;;
62010;SDS011;47967;51.756;10.174;2023-04-25T08:24:48;6.97;;;1.77;;
62010;SDS011;47967;51.756;10.174;2023-04-25T08:32:56;10.80;;;2.35;;
62010;SDS011;47967;51.756;10.174;2023-04-25T08:37:19;6.97;;;2.20;;
62010;SDS011;47967;51.756;10.174;2023-04-25T08:41:28;5.38;;;2.53;;
62010;SDS011;47967;51.756;10.174;2023-04-25T08:45:33;7.57;;;1.95;;
62010;SDS011;47967;51.756;10.174;2023-04-25T08:49:37;13.15;;;2.42;;
62010;SDS011;47967;51.756;10.174;2023-04-25T08:53:42;10.15;;;2.20;;
62010;SDS011;47967;51.756;10.174;2023-04-25T08:57:47;7.93;;;2.05;;
62010;SDS011;47967;51.756;10.174;2023-04-25T09:01:52;10.40;;;2.08;;
62010;SDS011;47967;51.756;10.174;2023-04-25T09:06:02;7.80;;;1.65;;
62010;SDS011;47967;51.756;10.174;2023-04-25T09:10:05;6.50;;;1.48;;
62010;SDS011;47967;51.756;10.174;2023-04-25T09:14:12;5.70;;;1.30;;
62010;SDS011;47967;51.756;10.174;2023-04-25T09:18:35;5.68;;;1.85;;
62010;SDS011;47967;51.756;10.174;2023-04-25T09:22:39;6.40;;;1.90;;
62010;SDS011;47967;51.756;10.174;2023-04-25T09:26:42;7.10;;;2.10;;
62010;SDS011;47967;51.756;10.174;2023-04-25T09:30:45;9.23;;;2.10;;
62010;SDS011;47967;51.756;10.174;2023-04-25T09:34:56;9.32;;;1.77;;
62010;SDS011;47967;51.756;10.174;2023-04-25T09:39:01;3.95;;;1.42;;
62010;SDS011;47967;51.756;10.174;2023-04-25T09:43:14;5.68;;;1.65;;
62010;SDS011;47967;51.756;10.174;2023-04-25T09:47:23;4.82;;;1.80;;
62010;SDS011;47967;51.756;10.174;2023-04-25T09:51:29;7.05;;;1.90;;
62010;SDS011;47967;51.756;10.174;2023-04-25T09:55:33;5.75;;;1.52;;
62010;SDS011;47967;51.756;10.174;2023-04-25T09:59:38;7.68;;;1.70;;
62010;SDS011;47967;51.756;10.174;2023-04-25T10:03:45;5.38;;;1.42;;
62010;SDS011;47967;51.756;10.174;2023-04-25T10:08:30;7.72;;;1.88;;
62010;SDS011;47967;51.756;10.174;2023-04-25T10:12:34;5.60;;;1.50;;
62010;SDS011;47967;51.756;10.174;2023-04-25T10:16:36;5.07;;;1.60;;
62010;SDS011;47967;51.756;10.174;2023-04-25T10:20:40;6.57;;;1.42;;
62010;SDS011;47967;51.756;10.174;2023-04-25T10:24:44;8.07;;;1.58;;
62010;SDS011;47967;51.756;10.174;2023-04-25T10:28:54;2.60;;;0.85;;
62010;SDS011;47967;51.756;10.174;2023-04-25T10:32:58;4.15;;;1.33;;
62010;SDS011;47967;51.756;10.174;2023-04-25T10:37:01;5.13;;;1.60;;
62010;SDS011;47967;51.756;10.174;2023-04-25T10:41:06;4.03;;;1.80;;
62010;SDS011;47967;51.756;10.174;2023-04-25T10:45:10;9.40;;;1.98;;
62010;SDS011;47967;51.756;10.174;2023-04-25T10:49:28;4.47;;;1.75;;
62010;SDS011;47967;51.756;10.174;2023-04-25T10:53:32;4.13;;;1.75;;
62010;SDS011;47967;51.756;10.174;2023-04-25T10:57:38;5.15;;;1.27;;
62010;SDS011;47967;51.756;10.174;2023-04-25T11:01:42;4.13;;;1.20;;
62010;SDS011;47967;51.756;10.174;2023-04-25T11:05:46;7.47;;;1.90;;
62010;SDS011;47967;51.756;10.174;2023-04-25T11:10:00;4.85;;;1.50;;
62010;SDS011;47967;51.756;10.174;2023-04-25T11:14:06;6.18;;;1.98;;
62010;SDS011;47967;51.756;10.174;2023-04-25T11:18:08;7.97;;;1.77;;
62010;SDS011;47967;51.756;10.174;2023-04-25T11:22:11;9.80;;;2.30;;
62010;SDS011;47967;51.756;10.174;2023-04-25T11:26:14;6.85;;;1.85;;
62010;SDS011;47967;51.756;10.174;2023-04-25T11:30:19;4.43;;;1.85;;
62010;SDS011;47967;51.756;10.174;2023-04-25T11:34:23;7.97;;;1.98;;
62010;SDS011;47967;51.756;10.174;2023-04-25T11:38:27;8.20;;;1.58;;
62010;SDS011;47967;51.756;10.174;2023-04-25T11:42:30;5.03;;;1.52;;
62010;SDS011;47967;51.756;10.174;2023-04-25T11:46:34;8.10;;;2.30;;
62010;SDS011;47967;51.756;10.174;2023-04-25T11:50:38;5.70;;;2.00;;
62010;SDS011;47967;51.756;10.174;2023-04-25T11:58:56;7.00;;;1.90;;
62010;SDS011;47967;51.756;10.174;2023-04-25T12:03:01;8.20;;;1.63;;
62010;SDS011;47967;51.756;10.174;2023-04-25T12:07:04;8.88;;;2.42;;
62010;SDS011;47967;51.756;10.174;2023-04-25T12:11:17;6.23;;;1.97;;
62010;SDS011;47967;51.756;10.174;2023-04-25T12:15:23;6.45;;;1.40;;
62010;SDS011;47967;51.756;10.174;2023-04-25T12:19:32;9.02;;;1.90;;
62010;SDS011;47967;51.756;10.174;2023-04-25T12:23:38;9.75;;;2.03;;
62010;SDS011;47967;51.756;10.174;2023-04-25T12:27:41;7.93;;;2.00;;
62010;SDS011;47967;51.756;10.174;2023-04-25T12:31:45;6.68;;;2.13;;
62010;SDS011;47967;51.756;10.174;2023-04-25T12:35:49;7.18;;;1.40;;
62010;SDS011;47967;51.756;10.174;2023-04-25T12:39:51;4.43;;;1.88;;
62010;SDS011;47967;51.756;10.174;2023-04-25T12:43:54;3.10;;;1.80;;
62010;SDS011;47967;51.756;10.174;2023-04-25T12:47:57;2.08;;;1.13;;
62010;SDS011;47967;51.756;10.174;2023-04-25T12:52:03;7.88;;;1.83;;
62010;SDS011;47967;51.756;10.174;2023-04-25T12:56:06;2.65;;;1.70;;
62010;SDS011;47967;51.756;10.174;2023-04-25T13:00:09;6.35;;;2.03;;
62010;SDS011;47967;51.756;10.174;2023-04-25T13:04:15;7.53;;;1.60;;
62010;SDS011;47967;51.756;10.174;2023-04-25T13:08:20;2.35;;;1.23;;
62010;SDS011;47967;51.756;10.174;2023-04-25T13:12:22;3.92;;;1.60;;
62010;SDS011;47967;51.756;10.174;2023-04-25T13:16:25;4.07;;;1.60;;
62010;SDS011;47967;51.756;10.174;2023-04-25T13:20:28;5.95;;;1.83;;
62010;SDS011;47967;51.756;10.174;2023-04-25T13:24:32;5.43;;;1.60;;
62010;SDS011;47967;51.756;10.174;2023-04-25T13:28:34;4.72;;;1.67;;
62010;SDS011;47967;51.756;10.174;2023-04-25T13:32:37;6.00;;;1.47;;
62010;SDS011;47967;51.756;10.174;2023-04-25T13:36:40;3.55;;;1.38;;
62010;SDS011;47967;51.756;10.174;2023-04-25T13:40:44;7.27;;;2.00;;
62010;SDS011;47967;51.756;10.174;2023-04-25T13:44:46;6.25;;;1.55;;
62010;SDS011;47967;51.756;10.174;2023-04-25T13:48:49;3.58;;;1.55;;
62010;SDS011;47967;51.756;10.174;2023-04-25T13:52:56;5.43;;;2.20;;
62010;SDS011;47967;51.756;10.174;2023-04-25T13:56:59;8.63;;;1.27;;
62010;SDS011;47967;51.756;10.174;2023-04-25T14:01:03;3.33;;;1.80;;
62010;SDS011;47967;51.756;10.174;2023-04-25T14:05:06;6.43;;;1.50;;
62010;SDS011;47967;51.756;10.174;2023-04-25T14:09:10;4.32;;;1.42;;
62010;SDS011;47967;51.756;10.174;2023-04-25T14:13:15;3.97;;;1.58;;
62010;SDS011;47967;51.756;10.174;2023-04-25T14:17:18;6.30;;;1.70;;
62010;SDS011;47967;51.756;10.174;2023-04-25T14:21:20;5.40;;;1.43;;
62010;SDS011;47967;51.756;10.174;2023-04-25T14:25:23;3.33;;;1.10;;
62010;SDS011;47967;51.756;10.174;2023-04-25T14:29:27;4.07;;;1.25;;
62010;SDS011;47967;51.756;10.174;2023-04-25T14:33:30;5.72;;;1.60;;
62010;SDS011;47967;51.756;10.174;2023-04-25T14:37:33;3.50;;;1.20;;
62010;SDS011;47967;51.756;10.174;2023-04-25T14:41:35;3.23;;;1.50;;
62010;SDS011;47967;51.756;10.174;2023-04-25T14:45:40;3.53;;;1.15;;
62010;SDS011;47967;51.756;10.174;2023-04-25T14:49:43;4.93;;;1.08;;
62010;SDS011;47967;51.756;10.174;2023-04-25T14:53:47;4.90;;;1.30;;
62010;SDS011;47967;51.756;10.174;2023-04-25T14:57:52;5.13;;;1.27;;
62010;SDS011;47967;51.756;10.174;2023-04-25T15:01:59;3.00;;;1.15;;
62010;SDS011;47967;51.756;10.174;2023-04-25T15:06:02;6.38;;;1.10;;
62010;SDS011;47967;51.756;10.174;2023-04-25T15:10:05;3.93;;;1.27;;
62010;SDS011;47967;51.756;10.174;2023-04-25T15:14:12;4.55;;;1.30;;
62010;SDS011;47967;51.756;10.174;2023-04-25T15:18:16;4.03;;;1.23;;
62010;SDS011;47967;51.756;10.174;2023-04-25T15:22:19;2.50;;;1.00;;
62010;SDS011;47967;51.756;10.174;2023-04-25T15:26:22;2.25;;;1.00;;
62010;SDS011;47967;51.756;10.174;2023-04-25T15:30:24;2.63;;;1.20;;
62010;SDS011;47967;51.756;10.174;2023-04-25T15:34:28;2.63;;;0.80;;
62010;SDS011;47967;51.756;10.174;2023-04-25T15:38:31;3.15;;;0.80;;
62010;SDS011;47967;51.756;10.174;2023-04-25T15:42:33;0.70;;;0.70;;
62010;SDS011;47967;51.756;10.174;2023-04-25T15:46:37;3.17;;;0.98;;
62010;SDS011;47967;51.756;10.174;2023-04-25T15:50:41;3.22;;;1.10;;
62010;SDS011;47967;51.756;10.174;2023-04-25T15:54:43;4.35;;;1.42;;
62010;SDS011;47967;51.756;10.174;2023-04-25T15:58:46;1.85;;;1.10;;
62010;SDS011;47967;51.756;10.174;2023-04-25T16:02:49;1.23;;;1.10;;
62010;SDS011;47967;51.756;10.174;2023-04-25T16:06:53;5.30;;;1.38;;
62010;SDS011;47967;51.756;10.174;2023-04-25T16:10:56;4.05;;;1.33;;
62010;SDS011;47967;51.756;10.174;2023-04-25T16:14:58;3.50;;;1.20;;
62010;SDS011;47967;51.756;10.174;2023-04-25T16:19:01;1.07;;;0.93;;
62010;SDS011;47967;51.756;10.174;2023-04-25T16:23:05;2.37;;;1.07;;
62010;SDS011;47967;51.756;10.174;2023-04-25T16:27:07;2.85;;;1.00;;
62010;SDS011;47967;51.756;10.174;2023-04-25T16:31:10;4.17;;;1.30;;
62010;SDS011;47967;51.756;10.174;2023-04-25T16:35:12;4.60;;;0.90;;
62010;SDS011;47967;51.756;10.174;2023-04-25T16:39:16;3.65;;;1.10;;
62010;SDS011;47967;51.756;10.174;2023-04-25T16:43:19;1.95;;;1.38;;
62010;SDS011;47967;51.756;10.174;2023-04-25T16:47:21;3.93;;;1.17;;
62010;SDS011;47967;51.756;10.174;2023-04-25T16:51:25;1.08;;;0.90;;
62010;SDS011;47967;51.756;10.174;2023-04-25T16:55:30;2.90;;;0.85;;
62010;SDS011;47967;51.756;10.174;2023-04-25T16:59:32;4.07;;;1.27;;
62010;SDS011;47967;51.756;10.174;2023-04-25T17:03:35;3.30;;;1.20;;
62010;SDS011;47967;51.756;10.174;2023-04-25T17:07:38;4.88;;;1.52;;
62010;SDS011;47967;51.756;10.174;2023-04-25T17:11:42;2.20;;;0.80;;
62010;SDS011;47967;51.756;10.174;2023-04-25T17:15:45;2.78;;;0.90;;
62010;SDS011;47967;51.756;10.174;2023-04-25T17:19:47;4.18;;;1.08;;
62010;SDS011;47967;51.756;10.174;2023-04-25T17:23:50;1.60;;;0.83;;
62010;SDS011;47967;51.756;10.174;2023-04-25T17:27:54;2.15;;;0.93;;
62010;SDS011;47967;51.756;10.174;2023-04-25T17:31:56;6.32;;;1.23;;
62010;SDS011;47967;51.756;10.174;2023-04-25T17:35:59;3.80;;;1.23;;
62010;SDS011;47967;51.756;10.174;2023-04-25T17:40:04;1.15;;;1.05;;
62010;SDS011;47967;51.756;10.174;2023-04-25T17:44:12;3.75;;;1.30;;
62010;SDS011;47967;51.756;10.174;2023-04-25T17:48:14;3.67;;;1.30;;
62010;SDS011;47967;51.756;10.174;2023-04-25T17:56:20;3.58;;;1.50;;
62010;SDS011;47967;51.756;10.174;2023-04-25T18:00:29;3.55;;;1.70;;
62010;SDS011;47967;51.756;10.174;2023-04-25T18:04:32;6.10;;;1.77;;
62010;SDS011;47967;51.756;10.174;2023-04-25T18:08:35;6.30;;;1.70;;
62010;SDS011;47967;51.756;10.174;2023-04-25T18:12:38;7.13;;;2.00;;
62010;SDS011;47967;51.756;10.174;2023-04-25T18:16:42;4.50;;;2.17;;
62010;SDS011;47967;51.756;10.174;2023-04-25T18:20:45;2.92;;;1.75;;
62010;SDS011;47967;51.756;10.174;2023-04-25T18:24:48;7.50;;;1.77;;
62010;SDS011;47967;51.756;10.174;2023-04-25T18:28:51;3.03;;;1.48;;
62010;SDS011;47967;51.756;10.174;2023-04-25T18:32:55;2.50;;;1.13;;
62010;SDS011;47967;51.756;10.174;2023-04-25T18:36:59;3.90;;;1.30;;
62010;SDS011;47967;51.756;10.174;2023-04-25T18:41:01;3.80;;;1.50;;
62010;SDS011;47967;51.756;10.174;2023-04-25T18:45:24;4.70;;;1.40;;
62010;SDS011;47967;51.756;10.174;2023-04-25T18:49:28;4.93;;;1.60;;
62010;SDS011;47967;51.756;10.174;2023-04-25T18:53:31;5.00;;;1.63;;
62010;SDS011;47967;51.756;10.174;2023-04-25T18:57:33;5.00;;;1.60;;
62010;SDS011;47967;51.756;10.174;2023-04-25T19:01:36;5.80;;;1.43;;
62010;SDS011;47967;51.756;10.174;2023-04-25T19:05:40;1.63;;;1.00;;
62010;SDS011;47967;51.756;10.174;2023-04-25T19:09:42;2.60;;;1.27;;
62010;SDS011;47967;51.756;10.174;2023-04-25T19:13:45;3.43;;;1.30;;
62010;SDS011;47967;51.756;10.174;2023-04-25T19:17:47;3.13;;;1.50;;
62010;SDS011;47967;51.756;10.174;2023-04-25T19:21:51;10.43;;;1.77;;
62010;SDS011;47967;51.756;10.174;2023-04-25T19:25:54;2.92;;;1.48;;
62010;SDS011;47967;51.756;10.174;2023-04-25T19:29:56;2.45;;;1.35;;
62010;SDS011;47967;51.756;10.174;2023-04-25T19:34:07;3.83;;;1.40;;
62010;SDS011;47967;51.756;10.174;2023-04-25T19:38:11;1.30;;;1.10;;
62010;SDS011;47967;51.756;10.174;2023-04-25T19:42:15;6.03;;;1.58;;
62010;SDS011;47967;51.756;10.174;2023-04-25T19:46:19;4.25;;;1.30;;
62010;SDS011;47967;51.756;10.174;2023-04-25T19:50:22;1.73;;;1.13;;
62010;SDS011;47967;51.756;10.174;2023-04-25T19:54:26;4.10;;;1.27;;
62010;SDS011;47967;51.756;10.174;2023-04-25T19:58:28;7.50;;;1.65;;
62010;SDS011;47967;51.756;10.174;2023-04-25T20:02:31;5.83;;;1.40;;
62010;SDS011;47967;51.756;10.174;2023-04-25T20:06:33;2.37;;;1.00;;
62010;SDS011;47967;51.756;10.174;2023-04-25T20:10:38;3.78;;;1.30;;
62010;SDS011;47967;51.756;10.174;2023-04-25T20:14:41;3.33;;;1.35;;
62010;SDS011;47967;51.756;10.174;2023-04-25T20:18:44;2.15;;;1.40;;
62010;SDS011;47967;51.756;10.174;2023-04-25T20:22:47;7.50;;;1.40;;
62010;SDS011;47967;51.756;10.174;2023-04-25T20:26:52;4.05;;;1.60;;
62010;SDS011;47967;51.756;10.174;2023-04-25T20:30:56;3.75;;;1.63;;
62010;SDS011;47967;51.756;10.174;2023-04-25T20:34:59;3.00;;;1.50;;
62010;SDS011;47967;51.756;10.174;2023-04-25T20:39:01;4.85;;;1.52;;
62010;SDS011;47967;51.756;10.174;2023-04-25T20:43:06;6.07;;;1.60;;
62010;SDS011;47967;51.756;10.174;2023-04-25T20:47:11;3.40;;;1.50;;
62010;SDS011;47967;51.756;10.174;2023-04-25T20:51:13;3.40;;;1.40;;
62010;SDS011;47967;51.756;10.174;2023-04-25T20:55:17;4.22;;;1.60;;
62010;SDS011;47967;51.756;10.174;2023-04-25T20:59:21;3.25;;;1.48;;
